Terminal Aerodrome Forecast
Issued by NWS

Home | Current Version | Previous Version | Graphics & Text | Print | Product List | Glossary On
Versions: 1 2 3 4 5 6 7 8 9 10 11 12 13 14 15 16 17 18 19 20 21
000
FTUS41 KCLE 221700
TAFFDY
TAF
KFDY 221734Z 2218/2318 30005KT P6SM OVC025
     FM222100 27005KT P6SM OVC035
     FM230500 24005KT 4SM BR SCT050
     FM231400 24010KT P6SM BKN050=

USA.gov is the U.S. government's official web portal to all federal, state and local government web resources and services.